Time;durP1;ratioP1;P1;durP2;ratioP2;P2;SDS_P1;SDS_P2;PMS_P1;PMS_P2;Temp;Humidity;BMP_temperature;BMP_pressure;BME280_temperature;BME280_humidity;BME280_pressure;Samples;Min_cycle;Max_cycle;Signal;HPM_P1;HPM_P2
2021/06/23 00:01:32;;;;;;;;;;;;;;;22.38;48.02;101370.22;4963142;28;96706;-86
2021/06/23 00:03:58;;;;;;;;;;;;;;;22.09;48.53;101371.53;4958975;28;98508;-85
2021/06/23 00:06:31;;;;;;;;;;;;;;;22.22;48.58;101375.03;4953447;28;100375;-82
2021/06/23 00:08:57;;;;;;;;;;;;;;;22.17;49.00;101361.06;4954473;28;97213;-84
2021/06/23 00:11:24;;;;;;;;;;;;;;;21.88;49.42;101360.47;4962722;28;96757;-84
2021/06/23 00:13:50;;;;;;;;;;;;;;;21.97;49.01;101358.97;4958653;28;96929;-84
2021/06/23 00:16:17;;;;;;;;;;;;;;;22.03;49.22;101361.22;4964409;28;99191;-84
2021/06/23 00:18:43;;;;;;;;;;;;;;;21.63;50.03;101352.47;4956875;28;97531;-83
2021/06/23 00:21:09;;;;;;;;;;;;;;;21.76;50.11;101359.53;4961732;28;98377;-83
2021/06/23 00:23:37;;;;;;;;;;;;;;;21.50;50.77;101349.78;4946676;28;97786;-83
2021/06/23 00:26:03;;;;;;;;;;;;;;;21.56;50.99;101359.25;4953303;28;98885;-86
2021/06/23 00:28:30;;;;;;;;;;;;;;;21.67;51.03;101349.44;4948860;28;97671;-84
2021/06/23 00:30:57;;;;;;;;;;;;;;;21.50;51.74;101352.47;4955703;28;97439;-85
2021/06/23 00:33:24;;;;;;;;;;;;;;;21.47;51.49;101356.22;4958003;28;96786;-83
2021/06/23 00:35:51;;;;;;;;;;;;;;;21.44;52.19;101356.47;4959047;28;98195;-83
2021/06/23 00:38:17;;;;;;;;;;;;;;;21.30;52.41;101350.34;4957406;28;100318;-84
2021/06/23 00:40:45;;;;;;;;;;;;;;;21.46;51.90;101348.31;4953982;28;96801;-84
2021/06/23 00:43:13;;;;;;;;;;;;;;;21.47;51.84;101348.16;4956300;28;97191;-85
2021/06/23 00:45:39;;;;;;;;;;;;;;;21.51;51.85;101350.66;4959480;28;98890;-85
2021/06/23 00:48:09;;;;;;;;;;;;;;;21.49;52.20;101358.81;4960836;28;97776;-85
2021/06/23 00:50:36;;;;;;;;;;;;;;;21.40;52.61;101364.84;4968320;28;96849;-84
2021/06/23 00:53:03;;;;;;;;;;;;;;;21.46;52.06;101372.50;4972850;28;96610;-85
2021/06/23 00:55:29;;;;;;;;;;;;;;;21.26;52.88;101383.78;4972273;28;98304;-85
2021/06/23 00:57:57;;;;;;;;;;;;;;;21.26;52.84;101391.84;4950819;28;98818;-85
2021/06/23 01:00:24;;;;;;;;;;;;;;;21.16;53.19;101397.00;4959994;28;96802;-85
2021/06/23 01:02:51;;;;;;;;;;;;;;;21.39;52.48;101381.97;4960105;28;96847;-84
2021/06/23 01:05:18;;;;;;;;;;;;;;;21.45;52.55;101387.78;4966019;28;97588;-85
2021/06/23 01:07:44;;;;;;;;;;;;;;;21.24;52.92;101385.72;4977170;28;98989;-84
2021/06/23 01:10:11;;;;;;;;;;;;;;;21.63;51.92;101387.41;4976040;28;96625;-84
2021/06/23 01:12:45;;;;;;;;;;;;;;;21.66;51.26;101377.28;4978119;28;97651;-83
2021/06/23 01:15:15;;;;;;;;;;;;;;;21.61;50.82;101379.44;4968632;28;97926;-84
2021/06/23 01:17:41;;;;;;;;;;;;;;;21.93;49.84;101377.13;4962296;28;97726;-83
2021/06/23 01:20:09;;;;;;;;;;;;;;;22.23;49.08;101379.44;4956188;28;97120;-84
2021/06/23 01:22:39;;;;;;;;;;;;;;;22.20;49.11;101368.88;4944695;28;96812;-84
2021/06/23 01:25:08;;;;;;;;;;;;;;;21.96;49.52;101376.94;4956917;28;97779;-84
2021/06/23 01:27:35;;;;;;;;;;;;;;;21.68;50.39;101375.34;4959882;28;99339;-84
2021/06/23 01:30:01;;;;;;;;;;;;;;;21.75;50.83;101382.00;4962624;28;97160;-85
2021/06/23 01:32:28;;;;;;;;;;;;;;;21.74;50.88;101396.44;4956610;28;97226;-84
2021/06/23 01:34:55;;;;;;;;;;;;;;;21.44;52.03;101414.75;4950304;28;98040;-84
2021/06/23 01:37:21;;;;;;;;;;;;;;;21.25;53.06;101430.44;4938561;28;98587;-84
2021/06/23 01:39:49;;;;;;;;;;;;;;;21.54;51.80;101417.63;4956573;28;96812;-84
2021/06/23 01:42:15;;;;;;;;;;;;;;;21.78;50.63;101397.94;4958547;28;96763;-84
2021/06/23 01:44:42;;;;;;;;;;;;;;;21.92;49.94;101396.09;4956629;28;99262;-84
2021/06/23 01:47:08;;;;;;;;;;;;;;;21.65;50.70;101397.09;4952886;28;99284;-84
2021/06/23 01:49:34;;;;;;;;;;;;;;;21.71;50.55;101398.50;4953742;28;97111;-83
2021/06/23 01:52:01;;;;;;;;;;;;;;;21.77;50.07;101398.06;4958504;28;97191;-85
2021/06/23 01:54:27;;;;;;;;;;;;;;;21.69;50.64;101413.88;4949860;28;101904;-84
2021/06/23 01:56:55;;;;;;;;;;;;;;;21.75;50.44;101403.53;4955562;28;96942;-84
2021/06/23 01:59:22;;;;;;;;;;;;;;;22.02;49.69;101411.47;4947068;28;97037;-83
2021/06/23 02:01:52;;;;;;;;;;;;;;;21.65;49.92;101420.44;4958196;28;97121;-84
2021/06/23 02:04:33;;;;;;;;;;;;;;;21.61;50.66;101421.63;4957406;28;96964;-85
2021/06/23 02:07:13;;;;;;;;;;;;;;;21.49;51.47;101431.41;4942121;28;97489;-84
2021/06/23 02:09:48;;;;;;;;;;;;;;;21.69;50.81;101443.47;4954360;28;96815;-84
2021/06/23 02:12:26;;;;;;;;;;;;;;;21.49;50.96;101442.19;4960132;28;97087;-84
2021/06/23 02:14:54;;;;;;;;;;;;;;;21.46;50.82;101435.16;4958918;28;98939;-84
2021/06/23 02:17:21;;;;;;;;;;;;;;;21.70;50.35;101443.34;4953723;28;98587;-85
2021/06/23 02:19:50;;;;;;;;;;;;;;;21.52;50.56;101444.66;4958820;28;97591;-85
2021/06/23 02:22:18;;;;;;;;;;;;;;;21.66;48.91;101441.84;4959204;28;97060;-83
2021/06/23 02:24:45;;;;;;;;;;;;;;;21.57;50.03;101450.56;4959938;28;98286;-83
2021/06/23 02:27:14;;;;;;;;;;;;;;;21.91;48.32;101461.63;4961125;28;96847;-84
2021/06/23 02:29:44;;;;;;;;;;;;;;;22.08;47.64;101446.00;4971517;28;96732;-82
2021/06/23 02:32:13;;;;;;;;;;;;;;;22.04;47.49;101436.47;4956485;28;96909;-83
2021/06/23 02:34:40;;;;;;;;;;;;;;;22.07;46.83;101435.34;4965429;28;97879;-85
2021/06/23 02:37:12;;;;;;;;;;;;;;;21.78;47.36;101437.44;4962435;28;98846;-83
2021/06/23 02:39:41;;;;;;;;;;;;;;;21.44;47.83;101430.88;4961902;28;96949;-84
2021/06/23 02:42:08;;;;;;;;;;;;;;;21.46;47.93;101431.66;4960277;28;96838;-83
2021/06/23 02:44:35;;;;;;;;;;;;;;;21.77;47.49;101438.41;4967726;28;98889;-85
2021/06/23 02:47:05;;;;;;;;;;;;;;;21.82;47.43;101439.78;4946447;28;98662;-83
2021/06/23 02:49:32;;;;;;;;;;;;;;;21.73;47.67;101445.81;4960996;28;96762;-84
2021/06/23 02:51:58;;;;;;;;;;;;;;;21.68;47.59;101439.03;4964805;28;97336;-85
2021/06/23 02:54:24;;;;;;;;;;;;;;;21.45;47.95;101441.53;4967174;28;97918;-84
2021/06/23 02:56:51;;;;;;;;;;;;;;;21.57;47.68;101453.25;4976038;28;96811;-85
2021/06/23 02:59:19;;;;;;;;;;;;;;;21.40;47.99;101453.56;4970695;28;96835;-84
2021/06/23 03:01:45;;;;;;;;;;;;;;;21.94;47.22;101453.31;4973937;28;96899;-85
2021/06/23 03:04:13;;;;;;;;;;;;;;;22.03;46.89;101458.94;4971279;28;99070;-84
2021/06/23 03:06:39;;;;;;;;;;;;;;;21.72;47.23;101449.50;4977873;28;97880;-85
2021/06/23 03:09:06;;;;;;;;;;;;;;;22.10;46.20;101445.91;4980913;28;96645;-84
2021/06/23 03:11:33;;;;;;;;;;;;;;;21.89;46.55;101442.91;4970898;28;96613;-84
2021/06/23 03:14:00;;;;;;;;;;;;;;;22.44;45.34;101444.31;4960612;28;98144;-84
2021/06/23 03:16:26;;;;;;;;;;;;;;;21.85;46.54;101449.47;4952434;28;100555;-85
2021/06/23 03:18:53;;;;;;;;;;;;;;;22.05;46.22;101458.84;4954359;28;96841;-84
2021/06/23 03:21:21;;;;;;;;;;;;;;;22.02;46.29;101459.91;4961391;28;96866;-84
2021/06/23 03:23:48;;;;;;;;;;;;;;;22.31;45.48;101465.03;4975251;28;99557;-86
2021/06/23 03:26:14;;;;;;;;;;;;;;;21.84;46.48;101471.97;4977733;28;98791;-84
2021/06/23 03:28:41;;;;;;;;;;;;;;;21.84;47.16;101480.91;4972948;28;96705;-85
2021/06/23 03:31:07;;;;;;;;;;;;;;;21.82;47.36;101476.59;4963836;28;96786;-84
2021/06/23 03:33:34;;;;;;;;;;;;;;;21.55;48.20;101482.06;4977239;28;97874;-85
2021/06/23 03:36:00;;;;;;;;;;;;;;;21.48;48.00;101486.16;4965851;28;99088;-85
2021/06/23 03:38:28;;;;;;;;;;;;;;;21.71;47.47;101493.50;4960935;28;96910;-85
2021/06/23 03:40:54;;;;;;;;;;;;;;;21.64;47.52;101502.09;4944717;28;96907;-84
2021/06/23 03:43:21;;;;;;;;;;;;;;;21.68;47.48;101491.00;4978696;28;97745;-85
2021/06/23 03:45:47;;;;;;;;;;;;;;;21.81;47.26;101491.88;4978943;28;98758;-85
2021/06/23 03:48:14;;;;;;;;;;;;;;;21.52;48.29;101498.44;4956192;28;96716;-84
2021/06/23 03:50:41;;;;;;;;;;;;;;;22.04;46.90;101492.97;4963284;28;97331;-85
2021/06/23 03:53:08;;;;;;;;;;;;;;;21.80;47.34;101500.03;4959294;28;99530;-83
2021/06/23 03:55:35;;;;;;;;;;;;;;;21.13;49.22;101504.69;4956846;28;99284;-83
2021/06/23 03:58:02;;;;;;;;;;;;;;;21.44;48.67;101503.47;4959087;28;98705;-84
2021/06/23 04:00:30;;;;;;;;;;;;;;;21.69;48.28;101498.13;4960978;28;96727;-86
2021/06/23 04:02:57;;;;;;;;;;;;;;;21.62;48.20;101495.94;4960837;28;99033;-85
2021/06/23 04:05:24;;;;;;;;;;;;;;;21.19;49.38;101492.69;4960708;28;101125;-86
2021/06/23 04:07:50;;;;;;;;;;;;;;;21.40;48.89;101496.56;4964329;28;96747;-85
2021/06/23 04:10:17;;;;;;;;;;;;;;;21.88;47.88;101497.66;4981219;28;97982;-84
2021/06/23 04:12:45;;;;;;;;;;;;;;;21.91;47.72;101489.41;4967431;28;98160;-85
2021/06/23 04:15:13;;;;;;;;;;;;;;;21.93;47.44;101494.66;4961841;28;101284;-86
2021/06/23 04:17:40;;;;;;;;;;;;;;;21.57;47.88;101495.41;4961484;28;96853;-86
2021/06/23 04:20:08;;;;;;;;;;;;;;;21.71;47.49;101488.13;4958565;28;96909;-84
2021/06/23 04:22:34;;;;;;;;;;;;;;;22.32;46.18;101494.50;4952840;28;98206;-85
2021/06/23 04:25:00;;;;;;;;;;;;;;;22.05;46.56;101501.91;4963633;28;100174;-84
2021/06/23 04:27:27;;;;;;;;;;;;;;;22.66;45.26;101498.28;4958671;28;96722;-85
2021/06/23 04:29:54;;;;;;;;;;;;;;;22.95;44.66;101506.94;4964998;28;96989;-86
2021/06/23 04:32:21;;;;;;;;;;;;;;;22.63;45.45;101515.53;4962750;28;101411;-83
2021/06/23 04:34:47;;;;;;;;;;;;;;;22.35;45.95;101523.91;4962984;28;99973;-83
2021/06/23 04:37:14;;;;;;;;;;;;;;;22.34;45.89;101524.88;4961920;28;96736;-83
2021/06/23 04:39:40;;;;;;;;;;;;;;;22.46;45.53;101526.69;4953079;28;96924;-84
2021/06/23 04:42:07;;;;;;;;;;;;;;;22.78;45.10;101528.84;4957223;28;98289;-85
2021/06/23 04:44:33;;;;;;;;;;;;;;;23.21;44.05;101538.16;4957539;28;99291;-84
2021/06/23 04:47:01;;;;;;;;;;;;;;;23.06;44.12;101533.91;4953824;28;97203;-84
2021/06/23 04:49:27;;;;;;;;;;;;;;;22.95;44.35;101534.75;4958625;28;96856;-84
2021/06/23 04:51:53;;;;;;;;;;;;;;;22.06;46.47;101528.69;4963994;28;99890;-85
2021/06/23 04:54:20;;;;;;;;;;;;;;;22.37;46.08;101538.13;4965530;28;98344;-84
2021/06/23 04:56:46;;;;;;;;;;;;;;;22.03;47.08;101539.69;4968094;28;97015;-85
2021/06/23 04:59:13;;;;;;;;;;;;;;;22.56;45.55;101543.91;4953462;28;96938;-84
2021/06/23 05:01:39;;;;;;;;;;;;;;;22.77;45.31;101541.50;4963846;28;99604;-82
2021/06/23 05:04:07;;;;;;;;;;;;;;;22.20;46.53;101549.22;4965954;28;99526;-84
2021/06/23 05:06:34;;;;;;;;;;;;;;;23.02;44.79;101546.78;4972078;28;96873;-84
2021/06/23 05:09:00;;;;;;;;;;;;;;;23.62;43.34;101550.34;4969439;28;97985;-83
2021/06/23 05:11:27;;;;;;;;;;;;;;;23.94;42.72;101556.78;4947361;28;97944;-84
2021/06/23 05:13:55;;;;;;;;;;;;;;;23.24;43.31;101554.09;4973218;28;98717;-83
2021/06/23 05:16:22;;;;;;;;;;;;;;;22.88;44.71;101546.09;4974812;28;96241;-79
2021/06/23 05:18:51;;;;;;;;;;;;;;;23.53;42.88;101551.03;4973583;28;96727;-84
2021/06/23 05:21:19;;;;;;;;;;;;;;;23.81;42.03;101548.78;4975599;28;99933;-83
2021/06/23 05:23:45;;;;;;;;;;;;;;;24.14;41.68;101552.50;4966171;28;98209;-83
2021/06/23 05:26:12;;;;;;;;;;;;;;;23.87;42.22;101547.44;4963326;28;97026;-83
2021/06/23 05:28:38;;;;;;;;;;;;;;;23.87;42.09;101550.16;4961791;28;96794;-83
2021/06/23 05:31:06;;;;;;;;;;;;;;;24.14;41.67;101549.81;4956149;28;100673;-84
2021/06/23 05:33:33;;;;;;;;;;;;;;;23.88;42.32;101553.72;4959579;28;98929;-83
2021/06/23 05:35:59;;;;;;;;;;;;;;;23.35;43.20;101554.16;4959425;28;98190;-84
2021/06/23 05:41:25;;;;;;;;;;;;;;;24.20;41.48;101552.91;4974319;28;99831;-83
2021/06/23 05:43:53;;;;;;;;;;;;;;;24.02;41.24;101550.78;4970087;28;98228;-82
2021/06/23 05:46:20;;;;;;;;;;;;;;;23.44;42.69;101558.81;4981296;28;96629;-83
2021/06/23 05:48:49;;;;;;;;;;;;;;;23.25;43.26;101566.59;4978792;28;97563;-83
2021/06/23 05:51:16;;;;;;;;;;;;;;;23.13;43.32;101563.97;4946441;28;98777;-84
2021/06/23 05:53:42;;;;;;;;;;;;;;;22.55;44.33;101568.25;4952168;28;101316;-83
2021/06/23 05:56:08;;;;;;;;;;;;;;;23.42;42.60;101568.91;4960575;28;97104;-83
2021/06/23 05:58:36;;;;;;;;;;;;;;;23.80;42.07;101574.06;4968667;28;96893;-83
2021/06/23 06:01:05;;;;;;;;;;;;;;;23.40;42.34;101575.38;4964418;28;97688;-84
2021/06/23 06:03:32;;;;;;;;;;;;;;;23.96;41.20;101584.50;4961089;28;98099;-83
2021/06/23 06:05:58;;;;;;;;;;;;;;;23.84;41.51;101590.84;4969885;28;97798;-83
2021/06/23 06:08:25;;;;;;;;;;;;;;;24.29;40.85;101585.53;4975486;28;96837;-84
2021/06/23 06:10:51;;;;;;;;;;;;;;;24.16;41.00;101599.13;4973872;28;101659;-84
2021/06/23 06:13:18;;;;;;;;;;;;;;;23.96;40.98;101583.66;4975559;28;96545;-85
2021/06/23 06:15:46;;;;;;;;;;;;;;;23.90;41.28;101598.47;4975836;28;97329;-84
2021/06/23 06:18:12;;;;;;;;;;;;;;;23.97;41.13;101594.31;4971024;28;96502;-84
2021/06/23 06:20:39;;;;;;;;;;;;;;;23.78;41.58;101584.09;4972949;28;96838;-84
2021/06/23 06:23:05;;;;;;;;;;;;;;;23.18;42.98;101588.75;4974644;28;99661;-84
2021/06/23 06:25:32;;;;;;;;;;;;;;;23.38;42.48;101594.34;4972136;28;96768;-82
2021/06/23 06:27:59;;;;;;;;;;;;;;;24.00;41.41;101593.22;4973880;28;97050;-83
2021/06/23 06:30:26;;;;;;;;;;;;;;;24.22;40.55;101585.16;4973820;28;99778;-83
2021/06/23 06:32:54;;;;;;;;;;;;;;;24.54;40.26;101591.59;4971099;28;100490;-83
2021/06/23 06:35:21;;;;;;;;;;;;;;;24.46;39.75;101598.56;4973288;28;96881;-83
2021/06/23 06:37:48;;;;;;;;;;;;;;;24.88;39.44;101605.03;4976920;28;96668;-82
2021/06/23 06:40:15;;;;;;;;;;;;;;;25.04;38.98;101594.72;4973566;28;97927;-82
2021/06/23 06:42:41;;;;;;;;;;;;;;;25.20;38.30;101611.41;4978203;28;98314;-82
2021/06/23 06:45:08;;;;;;;;;;;;;;;24.94;38.77;101612.69;4977640;28;96691;-83
2021/06/23 06:47:34;;;;;;;;;;;;;;;25.49;37.95;101614.34;4968657;28;96803;-83
2021/06/23 06:50:03;;;;;;;;;;;;;;;25.39;37.93;101613.41;4979919;28;97731;-83
2021/06/23 06:52:29;;;;;;;;;;;;;;;25.71;37.43;101619.69;4974672;28;98892;-84
2021/06/23 06:54:56;;;;;;;;;;;;;;;25.38;37.70;101625.22;4966048;28;97002;-84
2021/06/23 06:57:22;;;;;;;;;;;;;;;25.43;37.48;101622.97;4956443;28;97775;-81
2021/06/23 06:59:49;;;;;;;;;;;;;;;25.33;37.46;101620.22;4957856;28;99537;-81
2021/06/23 07:02:15;;;;;;;;;;;;;;;25.70;37.07;101626.09;4954782;28;99207;-84
2021/06/23 07:04:41;;;;;;;;;;;;;;;25.72;37.20;101628.69;4956059;28;96936;-80
2021/06/23 07:07:12;;;;;;;;;;;;;;;25.66;36.85;101624.66;4966094;28;96833;-83
2021/06/23 07:09:38;;;;;;;;;;;;;;;25.85;36.55;101620.38;4969005;28;97976;-83
2021/06/23 07:12:05;;;;;;;;;;;;;;;25.56;37.56;101620.09;4969962;28;97780;-83
2021/06/23 07:14:32;;;;;;;;;;;;;;;25.41;37.80;101625.81;4966567;28;96807;-82
2021/06/23 07:16:58;;;;;;;;;;;;;;;25.37;38.23;101618.09;4963133;28;97380;-84
2021/06/23 07:19:25;;;;;;;;;;;;;;;24.58;39.38;101614.66;4965743;28;97918;-81
2021/06/23 07:21:51;;;;;;;;;;;;;;;25.01;38.63;101622.84;4962132;28;101464;-82
2021/06/23 07:24:19;;;;;;;;;;;;;;;25.51;38.11;101627.75;4972092;28;96702;-80
2021/06/23 07:26:48;;;;;;;;;;;;;;;26.06;37.19;101622.06;4967244;28;97926;-81
2021/06/23 07:29:16;;;;;;;;;;;;;;;26.33;36.50;101618.81;4973433;28;98297;-82
2021/06/23 07:31:54;;;;;;;;;;;;;;;26.74;35.54;101617.00;4969343;28;101602;-82
2021/06/23 07:37:23;;;;;;;;;;;;;;;25.99;36.14;101628.16;4975089;28;97030;-82
2021/06/23 07:40:04;;;;;;;;;;;;;;;26.44;35.47;101626.88;4949457;28;97549;-83
2021/06/23 07:42:32;;;;;;;;;;;;;;;27.00;34.63;101615.53;4976233;28;97242;-82
2021/06/23 07:45:06;;;;;;;;;;;;;;;26.17;36.08;101627.41;4973189;28;97197;-83
2021/06/23 07:47:36;;;;;;;;;;;;;;;26.47;35.65;101623.03;4973623;28;97846;-82
2021/06/23 07:50:03;;;;;;;;;;;;;;;26.82;35.27;101620.75;4973463;28;100010;-82
2021/06/23 07:52:34;;;;;;;;;;;;;;;26.65;35.32;101618.66;4971961;28;98796;-81
2021/06/23 07:55:08;;;;;;;;;;;;;;;26.92;35.38;101615.34;4975529;28;96534;-83
2021/06/23 08:09:07;;;;;;;;;;;;;;;27.13;34.83;101616.13;4965343;28;97327;-80
2021/06/23 08:11:38;;;;;;;;;;;;;;;26.75;34.99;101619.56;4959871;28;100067;-84
2021/06/23 08:14:04;;;;;;;;;;;;;;;26.56;35.56;101620.38;4966004;28;99433;-84
2021/06/23 08:16:31;;;;;;;;;;;;;;;27.19;34.83;101607.41;4965193;28;96832;-84
2021/06/23 08:18:58;;;;;;;;;;;;;;;27.19;34.24;101610.13;4964009;28;96876;-85
2021/06/23 08:21:25;;;;;;;;;;;;;;;27.58;33.48;101624.59;4966833;28;98961;-86
2021/06/23 08:23:51;;;;;;;;;;;;;;;27.82;33.01;101626.91;4961586;28;100875;-81
2021/06/23 08:26:18;;;;;;;;;;;;;;;27.24;33.42;101617.88;4970491;28;96893;-83
2021/06/23 08:28:46;;;;;;;;;;;;;;;27.33;33.48;101617.00;4960367;28;97058;-82
2021/06/23 08:31:13;;;;;;;;;;;;;;;27.91;32.99;101619.72;4964086;28;100201;-86
2021/06/23 08:33:39;;;;;;;;;;;;;;;27.78;32.83;101633.59;4972687;28;97932;-86
2021/06/23 08:36:09;;;;;;;;;;;;;;;27.54;32.81;101627.75;4976684;28;96665;-87
2021/06/23 08:38:38;;;;;;;;;;;;;;;27.75;32.47;101625.75;4972839;28;96805;-88
2021/06/23 08:41:04;;;;;;;;;;;;;;;27.53;32.83;101626.91;4975805;28;98246;-86
2021/06/23 08:43:31;;;;;;;;;;;;;;;27.53;32.34;101631.47;4975199;28;96778;-85
2021/06/23 08:46:12;;;;;;;;;;;;;;;27.16;32.31;101629.41;4976034;28;96536;-86
2021/06/23 08:48:42;;;;;;;;;;;;;;;26.17;33.62;101637.38;4956002;28;96920;-87
2021/06/23 08:51:13;;;;;;;;;;;;;;;26.85;32.98;101630.44;4973575;28;99017;-87
2021/06/23 08:53:41;;;;;;;;;;;;;;;27.07;33.00;101632.09;4968457;28;99168;-85
2021/06/23 08:56:08;;;;;;;;;;;;;;;26.99;33.09;101630.06;4964412;28;96618;-84
2021/06/23 08:58:35;;;;;;;;;;;;;;;27.00;33.11;101639.06;4965065;28;97166;-85
2021/06/23 09:01:02;;;;;;;;;;;;;;;27.20;32.52;101638.13;4960826;28;98236;-83
2021/06/23 09:03:52;;;;;;;;;;;;;;;27.08;31.87;101641.97;4958641;28;98123;-84
2021/06/23 09:06:39;;;;;;;;;;;;;;;26.67;32.51;101648.34;4956943;28;96979;-81
2021/06/23 09:09:15;;;;;;;;;;;;;;;26.84;32.49;101640.44;4960464;28;97332;-82
2021/06/23 09:11:41;;;;;;;;;;;;;;;27.42;31.48;101639.72;4960122;28;100826;-82
2021/06/23 09:14:10;;;;;;;;;;;;;;;26.98;32.33;101645.50;4960727;28;99277;-85
2021/06/23 09:16:37;;;;;;;;;;;;;;;27.90;31.10;101646.00;4966634;28;96904;-82
2021/06/23 09:19:24;;;;;;;;;;;;;;;27.80;31.40;101642.47;4946702;28;97396;-83
2021/06/23 09:21:52;;;;;;;;;;;;;;;27.57;31.66;101641.88;4947131;28;97900;-83
2021/06/23 09:24:19;;;;;;;;;;;;;;;27.31;31.00;101646.13;4949640;28;96705;-83
2021/06/23 09:26:46;;;;;;;;;;;;;;;27.29;31.19;101646.28;4949102;28;96724;-81
2021/06/23 09:29:14;;;;;;;;;;;;;;;27.06;31.66;101644.81;4954064;28;96603;-82
2021/06/23 09:31:58;;;;;;;;;;;;;;;26.83;31.13;101641.44;4950922;28;97899;-83
2021/06/23 09:34:25;;;;;;;;;;;;;;;27.82;29.87;101647.75;4946377;28;99051;-81
2021/06/23 09:36:53;;;;;;;;;;;;;;;27.48;30.52;101647.31;4938364;28;96887;-84
2021/06/23 09:39:20;;;;;;;;;;;;;;;27.74;29.79;101662.91;4938330;28;96917;-82
2021/06/23 09:41:48;;;;;;;;;;;;;;;27.92;30.31;101665.75;4938257;28;101341;-82
2021/06/23 09:44:14;;;;;;;;;;;;;;;28.42;29.60;101658.22;4939286;28;97264;-82
2021/06/23 09:46:41;;;;;;;;;;;;;;;28.45;28.99;101665.25;4946673;28;96834;-81
2021/06/23 09:49:09;;;;;;;;;;;;;;;28.63;28.86;101665.31;4941712;28;97851;-83
2021/06/23 09:51:42;;;;;;;;;;;;;;;28.87;27.94;101665.69;4935631;28;101548;-83
2021/06/23 09:54:10;;;;;;;;;;;;;;;28.71;27.96;101668.16;4940732;28;97564;-81
2021/06/23 09:56:43;;;;;;;;;;;;;;;27.76;29.35;101660.06;4937468;28;98223;-82
2021/06/23 09:59:18;;;;;;;;;;;;;;;28.28;28.78;101650.56;4937681;28;97054;-81
2021/06/23 10:01:45;;;;;;;;;;;;;;;27.50;30.05;101643.47;4940507;28;98535;-81
2021/06/23 10:04:11;;;;;;;;;;;;;;;27.47;30.62;101653.72;4943190;28;98082;-83
2021/06/23 10:06:39;;;;;;;;;;;;;;;27.85;30.35;101659.19;4943984;28;96894;-81
2021/06/23 10:09:19;;;;;;;;;;;;;;;28.42;29.65;101657.41;4935576;28;97127;-81
2021/06/23 10:11:46;;;;;;;;;;;;;;;27.84;29.94;101654.75;4954285;28;98177;-82
2021/06/23 10:14:12;;;;;;;;;;;;;;;26.72;31.48;101651.50;4951162;28;100169;-81
2021/06/23 10:16:39;;;;;;;;;;;;;;;26.62;32.03;101656.03;4945046;28;97149;-82
2021/06/23 10:19:07;;;;;;;;;;;;;;;26.58;32.48;101659.00;4940843;28;96890;-82
2021/06/23 10:21:33;;;;;;;;;;;;;;;27.31;31.79;101657.84;4935540;28;98237;-81
2021/06/23 10:24:00;;;;;;;;;;;;;;;27.67;31.00;101660.91;4947024;28;96824;-83
2021/06/23 10:26:28;;;;;;;;;;;;;;;27.87;31.03;101662.63;4943432;28;96854;-83
2021/06/23 10:28:56;;;;;;;;;;;;;;;27.93;30.82;101661.19;4945715;28;97236;-82
2021/06/23 10:31:23;;;;;;;;;;;;;;;28.21;30.29;101665.75;4941703;28;98954;-83
2021/06/23 10:33:49;;;;;;;;;;;;;;;27.96;31.29;101664.44;4945582;28;97973;-82
2021/06/23 10:36:16;;;;;;;;;;;;;;;27.10;32.45;101657.09;4941075;28;96820;-81
2021/06/23 10:38:44;;;;;;;;;;;;;;;26.98;32.50;101675.31;4939639;28;96807;-85
2021/06/23 10:41:11;;;;;;;;;;;;;;;26.71;33.05;101666.09;4933425;28;96969;-83
2021/06/23 10:43:40;;;;;;;;;;;;;;;27.55;32.04;101671.06;4941815;28;98202;-82
2021/06/23 10:46:06;;;;;;;;;;;;;;;27.58;31.83;101676.19;4936165;28;98069;-82
2021/06/23 10:48:53;;;;;;;;;;;;;;;28.17;31.16;101674.31;4951739;28;97297;-83
2021/06/23 10:51:26;;;;;;;;;;;;;;;28.12;30.63;101681.03;4941513;28;99604;-83
2021/06/23 10:53:52;;;;;;;;;;;;;;;27.53;31.87;101696.63;4948570;28;97912;-82
2021/06/23 10:56:33;;;;;;;;;;;;;;;27.82;31.38;101685.78;4936984;28;97211;-83
2021/06/23 10:59:21;;;;;;;;;;;;;;;27.45;32.46;101694.56;4945908;28;97116;-84
2021/06/23 11:02:02;;;;;;;;;;;;;;;27.57;31.92;101700.78;4933704;28;98256;-82
2021/06/23 11:04:29;;;;;;;;;;;;;;;27.43;32.30;101704.72;4943787;28;99194;-82
2021/06/23 11:09:49;;;;;;;;;;;;;;;27.00;34.10;101707.75;4936920;28;96945;-81
2021/06/23 11:12:35;;;;;;;;;;;;;;;26.74;33.34;101714.59;4925833;28;98788;-81
2021/06/23 11:15:14;;;;;;;;;;;;;;;26.92;32.68;101721.97;4934243;28;99591;-84
2021/06/23 11:17:43;;;;;;;;;;;;;;;26.86;32.69;101718.91;4942739;28;96928;-84
2021/06/23 11:20:38;;;;;;;;;;;;;;;26.67;33.45;101714.28;4948624;28;96929;-85
2021/06/23 11:23:06;;;;;;;;;;;;;;;26.31;33.56;101717.50;4940982;28;100305;-84
2021/06/23 11:25:33;;;;;;;;;;;;;;;26.56;33.60;101712.53;4939004;28;100520;-84
2021/06/23 11:31:02;;;;;;;;;;;;;;;26.17;34.39;101716.81;4823723;22;102532;-82
2021/06/23 11:33:50;;;;;;;;;;;;;;;25.85;35.67;101715.13;4911810;28;99573;-82
2021/06/23 11:36:17;;;;;;;;;;;;;;;26.19;37.34;101709.38;4914945;28;99305;-81
2021/06/23 11:38:45;;;;;;;;;;;;;;;25.90;36.66;101702.91;4921944;28;96821;-82
2021/06/23 11:41:11;;;;;;;;;;;;;;;26.03;36.43;101703.56;4930538;28;96882;-82
2021/06/23 11:43:38;;;;;;;;;;;;;;;25.91;36.43;101704.63;4918786;28;100130;-82
2021/06/23 11:46:09;;;;;;;;;;;;;;;26.35;36.22;101708.09;4922174;28;99441;-81
2021/06/23 11:48:41;;;;;;;;;;;;;;;26.34;35.94;101703.66;4925332;28;98434;-81
2021/06/23 11:51:09;;;;;;;;;;;;;;;26.91;35.34;101705.88;4926088;28;96898;-82
2021/06/23 11:53:36;;;;;;;;;;;;;;;26.60;35.69;101710.38;4926373;28;98285;-82
2021/06/23 11:56:02;;;;;;;;;;;;;;;26.32;35.75;101709.22;4933145;28;99906;-80
2021/06/23 11:58:37;;;;;;;;;;;;;;;26.07;36.83;101704.16;4928133;28;96834;-82
2021/06/23 12:01:04;;;;;;;;;;;;;;;26.41;36.37;101708.44;4928726;28;97586;-80
2021/06/23 12:03:32;;;;;;;;;;;;;;;26.45;36.12;101711.75;4918904;28;98769;-80
2021/06/23 12:06:04;;;;;;;;;;;;;;;26.25;35.74;101713.47;4922697;28;100657;-80
2021/06/23 12:08:31;;;;;;;;;;;;;;;26.15;35.88;101707.94;4928549;28;98039;-81
2021/06/23 12:10:58;;;;;;;;;;;;;;;26.37;35.42;101712.41;4929930;28;97294;-81
2021/06/23 12:13:24;;;;;;;;;;;;;;;26.23;35.48;101715.41;4927850;28;102438;-82
2021/06/23 12:15:52;;;;;;;;;;;;;;;24.79;38.16;101711.22;4929752;28;102548;-81
2021/06/23 12:18:18;;;;;;;;;;;;;;;25.29;38.40;101712.53;4928933;28;96892;-81
2021/06/23 12:20:46;;;;;;;;;;;;;;;25.95;36.74;101724.16;4931659;28;96691;-81
2021/06/23 12:23:12;;;;;;;;;;;;;;;25.82;37.00;101726.19;4934996;28;98107;-80
2021/06/23 12:25:40;;;;;;;;;;;;;;;25.34;38.08;101731.94;4933724;28;97014;-82
2021/06/23 12:28:07;;;;;;;;;;;;;;;25.71;37.46;101719.84;4927203;28;96754;-82
2021/06/23 12:30:34;;;;;;;;;;;;;;;25.56;37.99;101725.63;4922927;28;97358;-83
2021/06/23 12:33:03;;;;;;;;;;;;;;;25.74;39.10;101729.53;4920604;28;99930;-81
2021/06/23 12:35:29;;;;;;;;;;;;;;;25.41;38.30;101731.31;4924540;28;98913;-82
2021/06/23 12:37:58;;;;;;;;;;;;;;;25.30;38.44;101734.06;4925809;28;96816;-81
2021/06/23 12:40:25;;;;;;;;;;;;;;;25.28;39.32;101736.03;4928966;28;96851;-82
2021/06/23 12:42:52;;;;;;;;;;;;;;;24.80;39.31;101735.41;4932477;28;96822;-82
2021/06/23 12:45:18;;;;;;;;;;;;;;;25.17;39.62;101736.03;4924009;28;97836;-81
2021/06/23 12:47:45;;;;;;;;;;;;;;;24.91;40.25;101734.59;4917654;28;97003;-80
2021/06/23 12:50:17;;;;;;;;;;;;;;;25.16;39.55;101733.44;4920023;28;96985;-80
2021/06/23 12:52:43;;;;;;;;;;;;;;;25.22;39.46;101728.41;4914961;28;100539;-81
2021/06/23 12:55:11;;;;;;;;;;;;;;;25.80;39.35;101732.59;4916700;28;100723;-84
2021/06/23 12:57:38;;;;;;;;;;;;;;;25.23;39.61;101734.69;4913861;28;96939;-81
2021/06/23 13:00:05;;;;;;;;;;;;;;;25.57;39.28;101743.59;4917799;28;97046;-80
2021/06/23 13:02:31;;;;;;;;;;;;;;;25.99;38.57;101745.44;4919441;28;98211;-80
2021/06/23 13:04:59;;;;;;;;;;;;;;;25.48;39.12;101750.63;4920562;28;98226;-80